createdAt,value
2023-03-08T00:02:11.349Z,12.30
2023-03-08T00:04:40.994Z,12.20
2023-03-08T00:07:12.557Z,12.10
2023-03-08T00:09:42.130Z,11.40
2023-03-08T00:12:13.273Z,11.70
2023-03-08T00:14:42.940Z,11.70
2023-03-08T00:17:13.316Z,10.60
2023-03-08T00:19:43.061Z,12.00
2023-03-08T00:22:13.544Z,12.00
2023-03-08T00:24:43.091Z,11.20
2023-03-08T00:27:13.427Z,11.20
2023-03-08T00:29:43.540Z,11.10
2023-03-08T00:32:13.177Z,10.90
2023-03-08T00:34:47.234Z,11.20
2023-03-08T00:37:17.354Z,11.10
2023-03-08T00:39:52.228Z,10.60
2023-03-08T00:42:23.130Z,11.00
2023-03-08T00:44:53.799Z,10.00
2023-03-08T00:47:24.414Z,10.50
2023-03-08T00:49:54.000Z,10.00
2023-03-08T00:52:24.577Z,10.00
2023-03-08T00:54:54.621Z,10.70
2023-03-08T00:57:24.286Z,10.50
2023-03-08T00:59:55.219Z,10.20
2023-03-08T01:02:24.908Z,10.70
2023-03-08T01:04:54.873Z,9.60
2023-03-08T01:07:26.025Z,10.00
2023-03-08T01:09:57.332Z,11.10
2023-03-08T01:12:26.944Z,10.20
2023-03-08T01:14:58.608Z,10.10
2023-03-08T01:17:29.136Z,9.90
2023-03-08T01:19:58.819Z,9.70
2023-03-08T01:22:28.379Z,10.00
2023-03-08T01:24:59.091Z,9.60
2023-03-08T01:27:30.708Z,9.10
2023-03-08T01:30:03.622Z,9.20
2023-03-08T01:32:33.352Z,9.20
2023-03-08T01:35:05.397Z,9.50
2023-03-08T01:37:35.253Z,9.60
2023-03-08T01:40:07.234Z,9.10
2023-03-08T01:42:39.896Z,9.80
2023-03-08T01:45:41.400Z,9.60
2023-03-08T01:48:12.356Z,9.60
2023-03-08T01:51:03.107Z,9.60
2023-03-08T01:53:35.090Z,9.50
2023-03-08T01:56:07.210Z,9.40
2023-03-08T01:58:38.582Z,9.70
2023-03-08T02:01:09.182Z,9.30
2023-03-08T02:03:38.959Z,9.10
2023-03-08T02:06:10.453Z,9.20
2023-03-08T02:08:40.627Z,8.60
2023-03-08T02:11:12.266Z,8.70
2023-03-08T02:13:43.517Z,8.30
2023-03-08T02:16:16.604Z,8.60
2023-03-08T02:18:55.601Z,8.60
2023-03-08T02:21:25.877Z,8.50
2023-03-08T02:23:56.252Z,7.90
2023-03-08T02:26:26.287Z,8.30
2023-03-08T02:28:56.534Z,8.10
2023-03-08T02:31:26.749Z,8.60
2023-03-08T02:33:57.363Z,7.90
2023-03-08T02:36:29.635Z,7.90
2023-03-08T02:38:59.209Z,8.20
2023-03-08T02:41:31.658Z,7.80
2023-03-08T02:44:01.263Z,7.50
2023-03-08T02:46:30.950Z,7.60
2023-03-08T02:49:02.203Z,7.70
2023-03-08T02:51:31.797Z,7.60
2023-03-08T02:54:01.390Z,7.10
2023-03-08T02:56:32.354Z,7.30
2023-03-08T02:59:01.958Z,7.60
2023-03-08T03:01:33.455Z,6.90
2023-03-08T03:04:03.182Z,6.50
2023-03-08T03:06:35.526Z,6.90
2023-03-08T03:09:08.933Z,6.50
2023-03-08T03:11:40.444Z,6.70
2023-03-08T03:14:10.049Z,6.10
2023-03-08T03:16:42.753Z,6.30
2023-03-08T03:19:13.407Z,5.60
2023-03-08T03:21:43.591Z,5.90
2023-03-08T03:24:15.039Z,5.10
2023-03-08T03:26:51.530Z,5.10
2023-03-08T03:29:21.496Z,4.70
2023-03-08T03:31:55.222Z,5.00
2023-03-08T03:34:25.807Z,5.00
2023-03-08T03:36:56.599Z,4.50
2023-03-08T03:39:26.634Z,4.80
2023-03-08T03:41:57.257Z,4.60
2023-03-08T03:44:28.632Z,4.80
2023-03-08T03:46:58.803Z,4.00
2023-03-08T03:49:30.218Z,4.10
2023-03-08T03:52:00.281Z,4.30
2023-03-08T03:54:36.689Z,4.00
2023-03-08T03:57:07.769Z,4.10
2023-03-08T03:59:39.380Z,3.70
2023-03-08T04:02:11.541Z,3.70
2023-03-08T04:04:49.480Z,3.40
2023-03-08T04:07:20.579Z,3.70
2023-03-08T04:09:57.511Z,3.10
2023-03-08T04:12:28.126Z,3.30
2023-03-08T04:14:58.199Z,3.30
2023-03-08T04:17:31.328Z,3.10
2023-03-08T04:20:01.065Z,3.20
2023-03-08T04:22:34.424Z,2.90
2023-03-08T04:25:10.525Z,2.80
2023-03-08T04:27:51.459Z,3.10
2023-03-08T04:30:22.790Z,2.90
2023-03-08T04:32:53.977Z,3.10
2023-03-08T04:35:25.709Z,2.80
2023-03-08T04:37:56.654Z,3.30
2023-03-08T04:40:29.352Z,3.20
2023-03-08T04:43:01.980Z,3.20
2023-03-08T04:45:38.940Z,3.40
2023-03-08T04:48:13.318Z,4.10
2023-03-08T04:50:43.702Z,3.40
2023-03-08T04:53:14.737Z,3.70
2023-03-08T04:55:44.863Z,3.70
2023-03-08T04:58:15.443Z,4.50
2023-03-08T05:00:45.153Z,3.70
2023-03-08T05:03:16.509Z,4.10
2023-03-08T05:05:50.853Z,3.90
2023-03-08T05:08:22.266Z,4.00
2023-03-08T05:10:59.607Z,4.00
2023-03-08T05:13:33.012Z,3.70
2023-03-08T05:16:04.165Z,3.80
2023-03-08T05:18:34.448Z,4.40
2023-03-08T05:21:07.417Z,4.50
2023-03-08T05:23:38.060Z,4.60
2023-03-08T05:26:10.932Z,4.90
2023-03-08T05:28:41.961Z,4.70
2023-03-08T05:31:15.132Z,4.90
2023-03-08T05:33:46.741Z,5.00
2023-03-08T05:36:18.573Z,4.90
2023-03-08T05:38:53.284Z,5.20
2023-03-08T05:41:22.986Z,5.40
2023-03-08T05:43:54.485Z,5.80
2023-03-08T05:46:24.433Z,6.20
2023-03-08T05:48:54.090Z,5.90
2023-03-08T05:51:24.501Z,6.10
2023-03-08T05:53:57.421Z,6.80
2023-03-08T05:56:27.106Z,6.90
2023-03-08T05:59:05.016Z,6.70
2023-03-08T06:01:34.741Z,7.10
2023-03-08T06:04:27.034Z,7.40
2023-03-08T06:06:56.878Z,7.10
2023-03-08T06:09:29.694Z,8.00
2023-03-08T06:11:59.768Z,8.70
2023-03-08T06:14:29.501Z,9.40
2023-03-08T06:17:00.651Z,9.50
2023-03-08T06:19:32.764Z,10.00
2023-03-08T06:22:02.321Z,10.70
2023-03-08T06:24:32.419Z,12.20
2023-03-08T06:27:03.494Z,11.30
2023-03-08T06:29:34.752Z,10.60
2023-03-08T06:32:05.799Z,9.90
2023-03-08T06:34:36.108Z,9.60
2023-03-08T06:37:05.928Z,10.00
2023-03-08T06:39:35.860Z,9.70
2023-03-08T06:42:06.941Z,10.50
2023-03-08T06:44:39.946Z,9.90
2023-03-08T06:47:10.532Z,9.00
2023-03-08T06:49:40.108Z,9.00
2023-03-08T06:52:11.370Z,8.50
2023-03-08T06:54:41.003Z,8.30
2023-03-08T06:57:11.628Z,8.80
2023-03-08T06:59:41.186Z,9.20
2023-03-08T07:02:11.660Z,8.40
2023-03-08T07:04:41.492Z,8.00
2023-03-08T07:07:11.061Z,8.60
2023-03-08T07:09:40.842Z,8.30
2023-03-08T07:12:10.828Z,7.60
2023-03-08T07:14:40.711Z,8.80
2023-03-08T07:17:11.377Z,8.60
2023-03-08T07:19:41.058Z,8.40
2023-03-08T07:22:12.856Z,7.70
2023-03-08T07:24:42.381Z,8.00
2023-03-08T07:27:12.406Z,8.30
2023-03-08T07:29:42.064Z,11.40
2023-03-08T07:32:11.834Z,7.10
2023-03-08T07:34:41.684Z,8.70
2023-03-08T07:37:13.600Z,7.40
2023-03-08T07:39:44.706Z,7.40
2023-03-08T07:42:14.354Z,16.20
2023-03-08T07:44:46.913Z,11.70
2023-03-08T07:47:16.520Z,8.00
2023-03-08T07:49:46.245Z,8.10
2023-03-08T07:52:15.981Z,8.70
2023-03-08T07:54:45.704Z,7.40
2023-03-08T07:57:16.041Z,7.30
2023-03-08T07:59:45.611Z,7.20
2023-03-08T08:02:15.872Z,7.10
2023-03-08T08:04:45.737Z,7.90
2023-03-08T08:07:17.383Z,7.70
2023-03-08T08:09:47.499Z,9.00
2023-03-08T08:12:17.093Z,10.10
2023-03-08T08:14:46.773Z,8.60
2023-03-08T08:17:18.571Z,8.90
2023-03-08T08:19:48.533Z,8.10
2023-03-08T08:22:18.856Z,7.00
2023-03-08T08:24:48.443Z,6.10
2023-03-08T08:27:18.045Z,7.10
2023-03-08T08:29:50.299Z,6.90
2023-03-08T08:32:19.895Z,8.70
2023-03-08T08:34:49.504Z,11.20
2023-03-08T08:37:19.233Z,8.70
2023-03-08T08:39:49.796Z,7.10
2023-03-08T08:42:19.402Z,6.80
2023-03-08T08:44:48.994Z,6.20
2023-03-08T08:47:18.568Z,4.80
2023-03-08T08:49:48.294Z,5.10
2023-03-08T08:52:18.444Z,5.90
2023-03-08T08:54:48.025Z,5.20
2023-03-08T08:57:17.611Z,7.30
2023-03-08T08:59:47.617Z,5.20
2023-03-08T09:02:17.460Z,5.10
2023-03-08T09:04:47.201Z,5.40
2023-03-08T09:07:16.994Z,5.00
2023-03-08T09:09:47.054Z,6.60
2023-03-08T09:12:16.820Z,5.90
2023-03-08T09:14:47.434Z,6.30
2023-03-08T09:17:17.060Z,4.90
2023-03-08T09:19:47.193Z,5.00
2023-03-08T09:22:17.892Z,4.40
2023-03-08T09:24:50.458Z,4.50
2023-03-08T09:27:20.313Z,4.20
2023-03-08T09:29:50.274Z,4.80
2023-03-08T09:32:19.950Z,3.70
2023-03-08T09:34:49.522Z,4.60
2023-03-08T09:37:19.070Z,4.10
2023-03-08T09:39:51.965Z,3.60
2023-03-08T09:42:26.944Z,4.30
2023-03-08T09:45:08.129Z,4.40
2023-03-08T09:47:46.465Z,4.20
2023-03-08T09:50:32.950Z,4.80
2023-03-08T09:53:11.025Z,5.50
2023-03-08T09:55:51.356Z,4.50
2023-03-08T09:58:32.924Z,4.20
2023-03-08T10:01:16.041Z,4.90
2023-03-08T10:04:08.658Z,7.30
2023-03-08T10:06:43.916Z,4.90
2023-03-08T10:09:26.817Z,5.30
2023-03-08T10:12:03.775Z,6.60
2023-03-08T10:14:35.936Z,9.00
2023-03-08T10:17:13.141Z,6.90
2023-03-08T10:19:47.831Z,7.60
2023-03-08T10:22:25.325Z,7.40
2023-03-08T10:24:58.552Z,6.80
2023-03-08T10:27:32.242Z,5.20
2023-03-08T10:30:11.523Z,4.90
2023-03-08T10:32:46.758Z,4.30
2023-03-08T10:35:17.845Z,4.20
2023-03-08T10:37:52.615Z,4.60
2023-03-08T10:40:23.005Z,4.40
2023-03-08T10:43:00.365Z,4.60
2023-03-08T10:45:31.573Z,7.10
2023-03-08T10:48:02.885Z,4.10
2023-03-08T10:50:34.927Z,2.90
2023-03-08T10:53:16.061Z,2.70
2023-03-08T10:55:50.088Z,3.40
2023-03-08T10:58:31.435Z,3.20
2023-03-08T11:01:03.698Z,3.20
2023-03-08T11:03:34.123Z,4.40
2023-03-08T11:06:13.552Z,3.70
2023-03-08T11:08:54.485Z,4.00
2023-03-08T11:11:24.177Z,3.90
2023-03-08T11:13:54.848Z,3.10
2023-03-08T11:16:41.066Z,3.90
2023-03-08T11:19:26.488Z,4.40
2023-03-08T11:22:06.180Z,4.00
2023-03-08T11:24:59.908Z,3.70
2023-03-08T11:27:43.988Z,4.10
2023-03-08T11:30:27.669Z,4.10
2023-03-08T11:33:22.430Z,3.80
2023-03-08T11:35:59.863Z,3.70
2023-03-08T11:38:31.498Z,3.70
2023-03-08T11:41:10.978Z,3.40
2023-03-08T11:44:04.032Z,3.10
2023-03-08T11:46:57.639Z,4.90
2023-03-08T11:49:47.637Z,4.20
2023-03-08T11:52:29.374Z,4.40
2023-03-08T11:55:20.007Z,4.40
2023-03-08T11:57:56.762Z,4.40
2023-03-08T12:00:30.761Z,4.80
2023-03-08T12:03:06.355Z,5.30
2023-03-08T12:05:40.320Z,3.10
2023-03-08T12:08:15.918Z,4.50
2023-03-08T12:10:51.353Z,3.90
2023-03-08T12:13:25.439Z,4.00
2023-03-08T12:16:00.065Z,5.60
2023-03-08T12:18:37.926Z,4.20
2023-03-08T12:21:18.423Z,3.90
2023-03-08T12:23:57.055Z,6.00
2023-03-08T12:26:31.832Z,7.00
2023-03-08T12:29:05.557Z,8.40
2023-03-08T12:31:40.903Z,9.00
2023-03-08T12:34:25.125Z,25.60
2023-03-08T12:36:55.549Z,3.90
2023-03-08T12:39:28.972Z,4.80
2023-03-08T12:42:00.822Z,3.70
2023-03-08T12:44:31.647Z,7.80
2023-03-08T12:47:17.636Z,4.60
2023-03-08T12:49:51.118Z,14.30
2023-03-08T12:52:34.468Z,4.50
2023-03-08T12:55:11.105Z,2.40
2023-03-08T12:57:46.948Z,5.20
2023-03-08T13:00:29.244Z,3.00
2023-03-08T13:03:04.764Z,2.90
2023-03-08T13:05:37.050Z,3.30
2023-03-08T13:08:22.881Z,3.50
2023-03-08T13:11:06.763Z,3.20
2023-03-08T13:13:50.438Z,3.10
2023-03-08T13:16:32.653Z,3.30
2023-03-08T13:19:18.626Z,3.80
2023-03-08T13:22:00.620Z,3.10
2023-03-08T13:24:40.387Z,3.40
2023-03-08T13:27:32.846Z,3.70
2023-03-08T13:30:20.504Z,6.00
2023-03-08T13:32:51.538Z,4.70
2023-03-08T13:35:21.808Z,3.70
2023-03-08T13:37:56.296Z,3.50
2023-03-08T13:40:27.754Z,6.10
2023-03-08T13:42:58.914Z,4.10
2023-03-08T13:45:29.028Z,4.20
2023-03-08T13:48:02.928Z,5.10
2023-03-08T13:50:35.525Z,7.80
2023-03-08T13:53:10.442Z,7.80
2023-03-08T13:55:43.828Z,6.90
2023-03-08T13:58:25.564Z,6.70
2023-03-08T14:01:03.955Z,16.40
2023-03-08T14:03:33.949Z,10.30
2023-03-08T14:06:04.063Z,10.70
2023-03-08T14:08:33.697Z,5.90
2023-03-08T14:11:08.190Z,4.30
2023-03-08T14:13:40.926Z,3.70
2023-03-08T14:16:23.953Z,4.50
2023-03-08T14:18:54.901Z,4.10
2023-03-08T14:21:26.932Z,4.30
2023-03-08T14:23:57.932Z,5.10
2023-03-08T14:26:34.231Z,6.10
2023-03-08T14:29:16.889Z,10.00
2023-03-08T14:32:28.188Z,4.70
2023-03-08T14:35:07.130Z,3.50
2023-03-08T14:37:36.984Z,3.80
2023-03-08T14:40:27.663Z,5.10
2023-03-08T14:42:59.051Z,4.20
2023-03-08T14:45:33.960Z,5.10
2023-03-08T14:48:15.772Z,5.90
2023-03-08T14:50:55.057Z,17.00
2023-03-08T14:53:31.291Z,13.20
2023-03-08T14:56:03.033Z,9.60
2023-03-08T14:58:54.941Z,11.00
2023-03-08T15:01:29.695Z,7.80
2023-03-08T15:04:00.083Z,7.70
2023-03-08T15:06:33.439Z,8.90
2023-03-08T15:09:07.030Z,7.10
2023-03-08T15:11:36.848Z,7.80
2023-03-08T15:14:06.457Z,8.90
2023-03-08T15:16:36.103Z,5.70
2023-03-08T15:19:06.008Z,4.10
2023-03-08T15:21:37.323Z,10.50
2023-03-08T15:24:10.834Z,10.50
2023-03-08T15:26:40.377Z,6.50
2023-03-08T15:29:24.190Z,10.80
2023-03-08T15:31:54.321Z,7.20
2023-03-08T15:34:25.668Z,8.70
2023-03-08T15:36:57.266Z,7.60
2023-03-08T15:39:27.246Z,5.00
2023-03-08T15:41:56.862Z,5.20
2023-03-08T15:44:26.454Z,18.30
2023-03-08T15:46:56.160Z,19.90
2023-03-08T15:49:25.780Z,16.60
2023-03-08T15:51:55.383Z,12.60
2023-03-08T15:54:28.289Z,8.80
2023-03-08T15:56:58.889Z,9.40
2023-03-08T15:59:28.470Z,6.90
2023-03-08T16:01:58.083Z,13.90
2023-03-08T16:04:27.773Z,16.70
2023-03-08T16:06:57.757Z,11.40
2023-03-08T16:09:27.386Z,7.50
2023-03-08T16:11:56.957Z,11.30
2023-03-08T16:14:26.544Z,14.60
2023-03-08T16:16:56.541Z,15.00
2023-03-08T16:19:26.413Z,18.40
2023-03-08T16:21:56.896Z,16.90
2023-03-08T16:24:27.168Z,14.10
2023-03-08T16:26:57.188Z,12.90
2023-03-08T16:29:27.092Z,9.60
2023-03-08T16:31:58.341Z,11.80
2023-03-08T16:34:29.517Z,11.20
2023-03-08T16:36:59.589Z,17.90
2023-03-08T16:39:29.206Z,19.40
2023-03-08T16:41:58.825Z,27.20
2023-03-08T16:44:30.644Z,20.40
2023-03-08T16:47:00.211Z,15.20
2023-03-08T16:49:29.870Z,9.50
2023-03-08T16:51:59.533Z,9.30
2023-03-08T16:54:29.135Z,7.90
2023-03-08T16:57:01.115Z,7.80
2023-03-08T16:59:34.517Z,7.50
2023-03-08T17:02:04.165Z,10.30
2023-03-08T17:04:33.805Z,136.00
2023-03-08T17:07:07.745Z,194.60
2023-03-08T17:09:38.241Z,276.70
2023-03-08T17:12:08.857Z,154.30
2023-03-08T17:14:38.466Z,134.10
2023-03-08T17:17:09.845Z,58.40
2023-03-08T17:19:41.018Z,57.90
2023-03-08T17:22:11.176Z,34.70
2023-03-08T17:24:40.780Z,30.50
2023-03-08T17:27:10.343Z,26.50
2023-03-08T17:29:39.895Z,32.60
2023-03-08T17:32:09.720Z,28.20
2023-03-08T17:34:39.353Z,29.80
2023-03-08T17:37:11.716Z,30.40
2023-03-08T17:39:41.935Z,33.90
2023-03-08T17:42:11.608Z,19.60
2023-03-08T17:44:41.498Z,19.20
2023-03-08T17:47:13.270Z,20.20
2023-03-08T17:49:42.841Z,18.20
2023-03-08T17:52:12.414Z,21.60
2023-03-08T17:54:42.096Z,27.70
2023-03-08T17:57:11.684Z,27.00
2023-03-08T17:59:41.260Z,25.60
2023-03-08T18:02:11.539Z,25.40
2023-03-08T18:04:44.431Z,25.40
2023-03-08T18:07:15.154Z,22.00
2023-03-08T18:09:47.520Z,20.30
2023-03-08T18:12:17.499Z,18.70
2023-03-08T18:14:51.841Z,20.30
2023-03-08T18:17:22.398Z,17.70
2023-03-08T18:19:51.956Z,20.00
2023-03-08T18:22:21.548Z,25.70
2023-03-08T18:24:51.376Z,24.50
2023-03-08T18:27:20.971Z,27.00
2023-03-08T18:29:50.771Z,27.10
2023-03-08T18:32:20.431Z,24.00
2023-03-08T18:34:50.201Z,26.20
2023-03-08T18:37:19.768Z,27.90
2023-03-08T18:39:54.239Z,38.70
2023-03-08T18:42:23.924Z,40.70
2023-03-08T18:44:53.509Z,47.20
2023-03-08T18:47:23.164Z,46.60
2023-03-08T18:49:53.055Z,48.90
2023-03-08T18:52:22.648Z,48.00
2023-03-08T18:54:52.225Z,46.40
2023-03-08T18:57:21.898Z,43.60
2023-03-08T18:59:51.720Z,43.60
2023-03-08T19:02:26.773Z,44.30
2023-03-08T19:04:58.024Z,42.80
2023-03-08T19:07:27.667Z,41.00
2023-03-08T19:09:59.326Z,41.90
2023-03-08T19:12:29.704Z,41.40
2023-03-08T19:14:59.312Z,39.10
2023-03-08T19:17:28.941Z,38.70
2023-03-08T19:19:58.685Z,35.40
2023-03-08T19:22:28.278Z,34.80
2023-03-08T19:24:58.141Z,36.70
2023-03-08T19:27:28.649Z,36.10
2023-03-08T19:29:58.395Z,35.20
2023-03-08T19:32:28.019Z,33.00
2023-03-08T19:34:57.628Z,29.20
2023-03-08T19:37:27.298Z,32.10
2023-03-08T19:39:57.160Z,35.90
2023-03-08T19:42:26.832Z,33.30
2023-03-08T19:44:56.453Z,36.60
2023-03-08T19:47:26.063Z,40.90
2023-03-08T19:49:55.656Z,48.50
2023-03-08T19:52:25.289Z,48.50
2023-03-08T19:54:55.099Z,44.50
2023-03-08T19:57:24.650Z,44.80
2023-03-08T19:59:57.318Z,36.40
2023-03-08T20:02:27.925Z,44.90
2023-03-08T20:04:57.693Z,36.70
2023-03-08T20:07:27.366Z,39.90
2023-03-08T20:10:04.602Z,37.90
2023-03-08T20:12:40.029Z,32.20
2023-03-08T20:15:10.945Z,31.70
2023-03-08T20:17:40.574Z,30.30
2023-03-08T20:20:13.940Z,30.80
2023-03-08T20:22:43.614Z,31.20
2023-03-08T20:25:13.492Z,32.30
2023-03-08T20:27:43.670Z,34.60
2023-03-08T20:30:14.687Z,36.50
2023-03-08T20:32:44.362Z,37.70
2023-03-08T20:35:14.789Z,35.60
2023-03-08T20:37:44.452Z,35.60
2023-03-08T20:40:16.112Z,35.80
2023-03-08T20:42:45.800Z,38.30
2023-03-08T20:45:15.759Z,34.00
2023-03-08T20:47:46.081Z,32.40
2023-03-08T20:50:15.757Z,33.20
2023-03-08T20:52:46.859Z,34.70
2023-03-08T20:55:18.311Z,34.30
2023-03-08T20:57:48.019Z,38.00
2023-03-08T21:00:18.043Z,34.30
2023-03-08T21:02:47.702Z,33.40
2023-03-08T21:05:17.606Z,36.10
2023-03-08T21:07:47.197Z,37.50
2023-03-08T21:10:17.277Z,38.10
2023-03-08T21:12:46.890Z,36.50
2023-03-08T21:15:16.739Z,39.70
2023-03-08T21:17:46.364Z,43.60
2023-03-08T21:20:16.299Z,46.90
2023-03-08T21:22:45.922Z,52.60
2023-03-08T21:25:15.715Z,52.70
2023-03-08T21:27:45.279Z,62.90
2023-03-08T21:30:15.354Z,51.70
2023-03-08T21:32:44.963Z,51.20
2023-03-08T21:35:14.732Z,56.90
2023-03-08T21:37:44.405Z,51.30
2023-03-08T21:40:14.741Z,47.40
2023-03-08T21:42:44.300Z,47.20
2023-03-08T21:45:14.297Z,47.30
2023-03-08T21:47:44.028Z,47.20
2023-03-08T21:50:14.056Z,46.10
2023-03-08T21:52:44.196Z,52.20
2023-03-08T21:55:13.801Z,54.30
2023-03-08T21:57:43.687Z,125.40
2023-03-08T22:00:16.647Z,64.50
2023-03-08T22:02:54.160Z,57.10
2023-03-08T22:05:24.437Z,51.10
2023-03-08T22:07:54.015Z,58.00
2023-03-08T22:10:23.666Z,52.00
2023-03-08T22:12:53.231Z,50.30
2023-03-08T22:15:22.800Z,47.90
2023-03-08T22:17:53.825Z,44.80
2023-03-08T22:20:23.434Z,42.10
2023-03-08T22:22:53.033Z,41.80
2023-03-08T22:25:22.637Z,36.20
2023-03-08T22:27:52.249Z,36.60
2023-03-08T22:30:22.270Z,34.90
2023-03-08T22:32:51.811Z,34.20
2023-03-08T22:35:21.797Z,33.10
2023-03-08T22:37:51.405Z,31.60
2023-03-08T22:40:21.125Z,31.90
2023-03-08T22:42:50.714Z,31.30
2023-03-08T22:45:20.545Z,30.70
2023-03-08T22:47:52.096Z,29.50
2023-03-08T22:50:21.916Z,27.40
2023-03-08T22:52:51.519Z,25.60
2023-03-08T22:55:21.445Z,25.60
2023-03-08T22:57:51.032Z,26.20
2023-03-08T23:00:20.955Z,27.10
2023-03-08T23:02:54.918Z,28.20
2023-03-08T23:05:25.119Z,28.00
2023-03-08T23:07:54.682Z,26.60
2023-03-08T23:10:24.236Z,26.30
2023-03-08T23:12:53.804Z,26.70
2023-03-08T23:15:23.303Z,25.20
2023-03-08T23:17:52.907Z,26.00
2023-03-08T23:20:23.191Z,26.60
2023-03-08T23:22:52.771Z,26.40
2023-03-08T23:25:22.345Z,26.70
2023-03-08T23:27:51.926Z,27.00
2023-03-08T23:30:21.937Z,27.90
2023-03-08T23:32:51.583Z,29.00
2023-03-08T23:35:21.433Z,29.30
2023-03-08T23:37:51.009Z,29.10
2023-03-08T23:40:20.832Z,31.30
2023-03-08T23:42:51.045Z,30.30
2023-03-08T23:45:21.120Z,28.90
2023-03-08T23:47:51.279Z,29.20
2023-03-08T23:50:21.090Z,26.90
2023-03-08T23:52:50.668Z,25.70
2023-03-08T23:55:20.535Z,26.00
2023-03-08T23:57:51.167Z,24.80
